createdAt,value
2018-10-12T00:01:17.927Z,0.30
2018-10-12T00:03:46.969Z,0.27
2018-10-12T00:06:16.093Z,0.27
2018-10-12T00:08:45.256Z,0.30
2018-10-12T00:11:14.326Z,0.20
2018-10-12T00:13:43.407Z,0.20
2018-10-12T00:16:12.494Z,0.40
2018-10-12T00:18:41.620Z,0.40
2018-10-12T00:21:10.608Z,0.30
2018-10-12T00:23:39.736Z,0.30
2018-10-12T00:26:08.791Z,0.20
2018-10-12T00:28:37.919Z,0.40
2018-10-12T00:31:06.959Z,0.40
2018-10-12T00:33:36.036Z,0.43
2018-10-12T00:36:05.153Z,0.30
2018-10-12T00:38:34.354Z,0.40
2018-10-12T00:41:03.369Z,0.30
2018-10-12T00:43:32.459Z,0.30
2018-10-12T00:46:01.563Z,0.20
2018-10-12T00:48:30.568Z,0.30
2018-10-12T00:50:59.582Z,0.30
2018-10-12T00:53:28.573Z,0.40
2018-10-12T00:55:57.685Z,0.30
2018-10-12T00:58:26.683Z,0.40
2018-10-12T01:00:55.694Z,0.20
2018-10-12T01:03:24.737Z,0.40
2018-10-12T01:05:53.821Z,0.27
2018-10-12T01:08:22.890Z,0.20
2018-10-12T01:10:51.986Z,0.30
2018-10-12T01:13:21.034Z,0.17
2018-10-12T01:15:50.048Z,0.50
2018-10-12T01:18:19.034Z,0.50
2018-10-12T01:20:48.094Z,0.40
2018-10-12T01:23:17.094Z,0.40
2018-10-12T01:25:46.126Z,0.30
2018-10-12T01:28:15.274Z,0.40
2018-10-12T01:30:45.317Z,0.30
2018-10-12T01:33:14.326Z,0.30
2018-10-12T01:35:43.292Z,0.30
2018-10-12T01:38:12.307Z,0.40
2018-10-12T01:40:41.258Z,0.30
2018-10-12T01:43:10.280Z,0.30
2018-10-12T01:45:39.297Z,0.53
2018-10-12T01:48:08.278Z,0.27
2018-10-12T01:50:37.326Z,0.30
2018-10-12T01:53:06.663Z,0.30
2018-10-12T01:55:35.693Z,0.30
2018-10-12T01:58:04.711Z,0.47
2018-10-12T02:00:33.790Z,0.27
2018-10-12T02:03:03.276Z,0.40
2018-10-12T02:05:32.291Z,0.37
2018-10-12T02:08:01.302Z,0.30
2018-10-12T02:10:30.274Z,0.30
2018-10-12T02:12:59.280Z,0.30
2018-10-12T02:15:28.378Z,0.20
2018-10-12T02:17:57.423Z,0.20
2018-10-12T02:20:26.457Z,0.20
2018-10-12T02:22:55.435Z,0.27
2018-10-12T02:25:24.450Z,0.20
2018-10-12T02:27:53.549Z,0.20
2018-10-12T02:30:22.623Z,0.20
2018-10-12T02:32:51.635Z,0.23
2018-10-12T02:35:20.595Z,0.20
2018-10-12T02:37:49.608Z,0.30
2018-10-12T02:40:18.638Z,0.27
2018-10-12T02:42:47.719Z,0.20
2018-10-12T02:45:16.811Z,0.30
2018-10-12T02:47:45.792Z,0.30
2018-10-12T02:50:14.796Z,0.20
2018-10-12T02:52:43.770Z,0.33
2018-10-12T02:55:12.755Z,0.30
2018-10-12T02:57:41.747Z,0.30
2018-10-12T03:00:10.842Z,0.30
2018-10-12T03:02:39.841Z,0.27
2018-10-12T03:05:08.886Z,0.30
2018-10-12T03:07:37.966Z,0.27
2018-10-12T03:10:06.953Z,0.30
2018-10-12T03:12:36.045Z,0.20
2018-10-12T03:15:05.100Z,0.23
2018-10-12T03:17:34.112Z,0.40
2018-10-12T03:20:03.235Z,0.30
2018-10-12T03:22:32.198Z,0.37
2018-10-12T03:25:01.239Z,0.20
2018-10-12T03:27:30.288Z,0.30
2018-10-12T03:29:59.273Z,0.30
2018-10-12T03:32:28.290Z,0.30
2018-10-12T03:34:57.301Z,0.10
2018-10-12T03:37:26.289Z,0.20
2018-10-12T03:39:55.304Z,0.40
2018-10-12T03:42:24.363Z,0.40
2018-10-12T03:44:53.371Z,0.30
2018-10-12T03:47:22.404Z,0.33
2018-10-12T03:49:51.378Z,0.30
2018-10-12T03:52:20.478Z,0.40
2018-10-12T03:54:49.560Z,0.30
2018-10-12T03:57:18.553Z,0.40
2018-10-12T03:59:47.557Z,0.30
2018-10-12T04:02:16.631Z,0.30
2018-10-12T04:04:45.636Z,0.23
2018-10-12T04:07:14.910Z,0.20
2018-10-12T04:09:44.032Z,0.30
2018-10-12T04:12:13.062Z,0.27
2018-10-12T04:14:42.160Z,0.23
2018-10-12T04:17:11.228Z,0.30
2018-10-12T04:19:40.224Z,0.30
2018-10-12T04:22:09.230Z,0.30
2018-10-12T04:24:38.311Z,0.30
2018-10-12T04:27:07.349Z,0.40
2018-10-12T04:29:36.372Z,0.43
2018-10-12T04:32:05.522Z,0.30
2018-10-12T04:34:34.578Z,0.30
2018-10-12T04:37:03.572Z,0.40
2018-10-12T04:39:55.893Z,0.40
2018-10-12T04:42:24.898Z,0.40
2018-10-12T04:44:53.884Z,0.40
2018-10-12T04:47:26.790Z,0.20
2018-10-12T04:49:56.166Z,0.23
2018-10-12T04:52:26.496Z,0.20
2018-10-12T04:54:55.494Z,0.30
2018-10-12T04:57:24.606Z,0.30
2018-10-12T04:59:53.612Z,0.30
2018-10-12T05:02:22.576Z,0.30
2018-10-12T05:04:51.561Z,0.30
2018-10-12T05:07:20.581Z,0.30
2018-10-12T05:09:49.537Z,0.67
2018-10-12T05:12:18.566Z,0.50
2018-10-12T05:14:47.596Z,0.30
2018-10-12T05:17:16.627Z,0.50
2018-10-12T05:19:45.630Z,0.33
2018-10-12T05:22:14.732Z,0.30
2018-10-12T05:24:43.614Z,0.30
2018-10-12T05:27:12.621Z,0.33
2018-10-12T05:29:41.694Z,0.30
2018-10-12T05:32:10.713Z,0.40
2018-10-12T05:34:39.710Z,0.40
2018-10-12T05:37:08.710Z,0.30
2018-10-12T05:39:37.701Z,0.20
2018-10-12T05:42:07.116Z,0.33
2018-10-12T05:44:36.097Z,0.20
2018-10-12T05:47:05.095Z,0.37
2018-10-12T05:49:45.583Z,0.43
2018-10-12T05:52:14.522Z,0.40
2018-10-12T05:54:43.530Z,0.40
2018-10-12T05:57:12.582Z,0.30
2018-10-12T05:59:42.647Z,0.30
2018-10-12T06:02:11.631Z,0.40
2018-10-12T06:04:40.644Z,0.30
2018-10-12T06:07:09.650Z,0.30
2018-10-12T06:09:38.758Z,0.40
2018-10-12T06:12:07.717Z,0.30
2018-10-12T06:14:36.902Z,0.30
2018-10-12T06:17:06.000Z,0.30
2018-10-12T06:19:35.032Z,0.27
2018-10-12T06:22:04.025Z,0.30
2018-10-12T06:24:33.052Z,0.30
2018-10-12T06:27:02.099Z,0.30
2018-10-12T06:29:31.111Z,0.40
2018-10-12T06:32:00.396Z,0.33
2018-10-12T06:34:29.397Z,0.20
2018-10-12T06:36:58.490Z,0.30
2018-10-12T06:39:27.494Z,0.30
2018-10-12T06:41:56.635Z,0.37
2018-10-12T06:44:25.662Z,0.20
2018-10-12T06:46:54.679Z,0.30
2018-10-12T06:49:23.709Z,0.47
2018-10-12T06:51:52.762Z,0.50
2018-10-12T06:54:21.790Z,0.37
2018-10-12T06:56:50.875Z,0.30
2018-10-12T06:59:19.848Z,0.20
2018-10-12T07:01:48.826Z,0.50
2018-10-12T07:04:17.828Z,0.20
2018-10-12T07:06:46.869Z,0.30
2018-10-12T07:09:16.024Z,0.40
2018-10-12T07:11:44.996Z,0.30
2018-10-12T07:14:14.097Z,0.40
2018-10-12T07:16:43.107Z,0.43
2018-10-12T07:19:12.150Z,0.40
2018-10-12T07:21:41.279Z,0.40
2018-10-12T07:24:10.379Z,0.30
2018-10-12T07:26:39.411Z,0.30
2018-10-12T07:29:08.419Z,0.40
2018-10-12T07:31:37.661Z,0.37
2018-10-12T07:34:06.791Z,0.40
2018-10-12T07:36:35.815Z,0.40
2018-10-12T07:39:06.803Z,0.20
2018-10-12T07:41:35.816Z,0.30
2018-10-12T07:44:04.803Z,0.40
2018-10-12T07:46:33.805Z,0.40
2018-10-12T07:49:02.828Z,0.40
2018-10-12T07:51:31.751Z,0.27
2018-10-12T07:54:00.770Z,0.20
2018-10-12T07:56:29.803Z,0.50
2018-10-12T07:58:58.768Z,0.30
2018-10-12T08:01:27.952Z,0.30
2018-10-12T08:03:57.273Z,0.20
2018-10-12T08:06:26.986Z,0.50
2018-10-12T08:08:55.976Z,0.40
2018-10-12T08:11:24.960Z,0.50
2018-10-12T08:13:54.116Z,0.40
2018-10-12T08:16:22.982Z,0.40
2018-10-12T08:18:51.931Z,0.40
2018-10-12T08:21:20.922Z,0.40
2018-10-12T08:23:49.930Z,0.27
2018-10-12T08:26:18.925Z,0.50
2018-10-12T08:28:47.935Z,0.47
2018-10-12T08:31:16.910Z,0.30
2018-10-12T08:33:45.922Z,0.47
2018-10-12T08:36:14.914Z,0.50
2018-10-12T08:38:43.971Z,0.30
2018-10-12T08:41:12.999Z,0.50
2018-10-12T08:43:42.044Z,0.37
2018-10-12T08:46:11.079Z,0.30
2018-10-12T08:48:40.668Z,0.40
2018-10-12T08:51:09.702Z,0.40
2018-10-12T08:53:38.688Z,0.40
2018-10-12T08:56:07.885Z,0.50
2018-10-12T08:58:36.865Z,0.30
2018-10-12T09:01:06.257Z,0.40
2018-10-12T09:03:35.292Z,0.37
2018-10-12T09:06:04.287Z,0.50
2018-10-12T09:08:33.555Z,0.50
2018-10-12T09:11:02.556Z,0.50
2018-10-12T09:13:31.542Z,0.43
2018-10-12T09:16:00.537Z,0.50
2018-10-12T09:18:29.564Z,0.30
2018-10-12T09:20:58.547Z,0.50
2018-10-12T09:23:27.542Z,0.40
2018-10-12T09:25:56.516Z,0.50
2018-10-12T09:28:25.555Z,0.40
2018-10-12T09:30:54.536Z,0.50
2018-10-12T09:33:23.536Z,0.30
2018-10-12T09:35:52.510Z,0.40
2018-10-12T09:38:21.568Z,0.50
2018-10-12T09:40:50.599Z,0.50
2018-10-12T09:43:19.723Z,0.40
2018-10-12T09:45:48.727Z,0.50
2018-10-12T09:48:18.665Z,0.40
2018-10-12T09:50:48.499Z,0.43
2018-10-12T09:53:17.504Z,0.50
2018-10-12T09:55:46.514Z,0.50
2018-10-12T09:58:15.533Z,0.27
2018-10-12T10:00:50.027Z,0.33
2018-10-12T10:03:24.404Z,0.50
2018-10-12T10:05:53.453Z,0.40
2018-10-12T10:08:22.722Z,0.50
2018-10-12T10:10:51.531Z,0.40
2018-10-12T10:13:20.551Z,0.40
2018-10-12T10:15:49.528Z,0.40
2018-10-12T10:18:18.566Z,0.50
2018-10-12T10:20:47.669Z,0.50
2018-10-12T10:23:16.626Z,0.47
2018-10-12T10:25:45.606Z,0.40
2018-10-12T10:28:14.628Z,0.43
2018-10-12T10:30:43.694Z,0.60
2018-10-12T10:33:12.715Z,0.50
2018-10-12T10:35:42.052Z,0.50
2018-10-12T10:38:11.105Z,0.50
2018-10-12T10:40:40.182Z,0.50
2018-10-12T10:43:09.202Z,0.43
2018-10-12T10:45:38.152Z,0.50
2018-10-12T10:48:07.197Z,0.60
2018-10-12T10:50:36.299Z,0.70
2018-10-12T10:53:06.016Z,0.50
2018-10-12T10:55:35.118Z,0.50
2018-10-12T10:58:04.175Z,0.50
2018-10-12T11:00:33.180Z,0.42
2018-10-12T11:03:02.138Z,0.50
2018-10-12T11:05:31.180Z,0.53
2018-10-12T11:08:00.143Z,0.60
2018-10-12T11:10:29.152Z,0.60
2018-10-12T11:12:58.134Z,0.50
2018-10-12T11:15:27.681Z,0.60
2018-10-12T11:17:56.795Z,0.55
2018-10-12T11:20:25.834Z,0.50
2018-10-12T11:22:54.822Z,0.60
2018-10-12T11:25:23.962Z,0.70
2018-10-12T11:27:52.806Z,0.60
2018-10-12T11:30:21.782Z,0.50
2018-10-12T11:32:50.918Z,0.53
2018-10-12T11:35:20.412Z,0.60
2018-10-12T11:37:49.390Z,0.60
2018-10-12T11:40:18.375Z,0.60
2018-10-12T11:42:58.925Z,0.50
2018-10-12T11:45:27.991Z,0.60
2018-10-12T11:47:56.952Z,0.60
2018-10-12T11:50:25.924Z,0.60
2018-10-12T11:52:55.020Z,0.50
2018-10-12T11:55:24.099Z,0.50
2018-10-12T11:57:53.014Z,0.60
2018-10-12T12:00:22.192Z,0.70
2018-10-12T12:02:51.232Z,0.55
2018-10-12T12:05:20.196Z,0.60
2018-10-12T12:07:49.220Z,0.50
2018-10-12T12:10:18.201Z,0.60
2018-10-12T12:12:47.164Z,0.40
2018-10-12T12:15:16.168Z,0.60
2018-10-12T12:17:45.126Z,0.50
2018-10-12T12:20:14.204Z,0.60
2018-10-12T12:22:43.219Z,0.65
2018-10-12T12:25:12.254Z,0.57
2018-10-12T12:27:41.288Z,0.60
2018-10-12T12:30:10.364Z,0.53
2018-10-12T12:32:39.426Z,0.60
2018-10-12T12:35:08.792Z,0.70
2018-10-12T12:37:37.592Z,0.50
2018-10-12T12:40:06.966Z,0.60
2018-10-12T12:42:35.955Z,0.55
2018-10-12T12:45:05.956Z,0.50
2018-10-12T12:47:35.294Z,0.50
2018-10-12T12:50:04.235Z,0.68
2018-10-12T12:52:33.258Z,0.50
2018-10-12T12:55:02.310Z,0.50
2018-10-12T12:57:31.330Z,0.60
2018-10-12T13:00:00.369Z,0.70
2018-10-12T13:02:29.326Z,0.60
2018-10-12T13:04:58.324Z,0.57
2018-10-12T13:07:27.343Z,0.60
2018-10-12T13:09:56.360Z,0.55
2018-10-12T13:12:25.508Z,0.70
2018-10-12T13:14:54.538Z,0.60
2018-10-12T13:17:23.606Z,0.60
2018-10-12T13:19:52.602Z,0.57
2018-10-12T13:22:21.658Z,0.50
2018-10-12T13:24:50.711Z,0.60
2018-10-12T13:27:19.684Z,0.60
2018-10-12T13:29:48.711Z,0.60
2018-10-12T13:32:17.790Z,0.40
2018-10-12T13:34:46.837Z,0.50
2018-10-12T13:37:15.894Z,0.60
2018-10-12T13:39:44.973Z,0.68
2018-10-12T13:42:13.958Z,0.47
2018-10-12T13:44:43.110Z,0.40
2018-10-12T13:47:12.077Z,0.50
2018-10-12T13:49:41.395Z,0.53
2018-10-12T13:52:10.446Z,0.50
2018-10-12T13:54:39.440Z,0.60
2018-10-12T13:57:08.459Z,0.60
2018-10-12T13:59:37.439Z,0.60
2018-10-12T14:02:06.755Z,0.70
2018-10-12T14:04:35.804Z,0.50
2018-10-12T14:07:04.949Z,0.60
2018-10-12T14:09:33.923Z,0.57
2018-10-12T14:12:02.939Z,0.60
2018-10-12T14:14:32.025Z,0.57
2018-10-12T14:17:01.022Z,0.70
2018-10-12T14:19:30.033Z,0.50
2018-10-12T14:21:59.199Z,0.60
2018-10-12T14:24:28.208Z,0.53
2018-10-12T14:26:57.305Z,0.53
2018-10-12T14:29:26.279Z,0.60
2018-10-12T14:31:55.304Z,0.50
2018-10-12T14:34:24.354Z,0.63
2018-10-12T14:36:53.369Z,0.50
2018-10-12T14:39:22.348Z,0.60
2018-10-12T14:41:51.367Z,0.50
2018-10-12T14:44:20.356Z,0.50
2018-10-12T14:46:49.344Z,0.60
2018-10-12T14:49:18.378Z,0.53
2018-10-12T14:51:47.440Z,0.50
2018-10-12T14:54:16.526Z,0.50
2018-10-12T14:56:45.491Z,0.60
2018-10-12T14:59:14.433Z,0.60
2018-10-12T15:01:43.482Z,0.60
2018-10-12T15:04:12.507Z,0.70
2018-10-12T15:06:41.487Z,0.50
2018-10-12T15:09:12.417Z,0.60
2018-10-12T15:11:41.571Z,0.50
2018-10-12T15:14:10.715Z,0.43
2018-10-12T15:16:39.736Z,0.40
2018-10-12T15:19:08.710Z,0.50
2018-10-12T15:21:37.703Z,0.70
2018-10-12T15:24:07.007Z,0.40
2018-10-12T15:26:35.963Z,0.47
2018-10-12T15:29:05.025Z,0.60
2018-10-12T15:31:34.091Z,0.53
2018-10-12T15:34:03.065Z,0.70
2018-10-12T15:36:32.182Z,0.60
2018-10-12T15:39:01.174Z,0.50
2018-10-12T15:41:30.165Z,0.50
2018-10-12T15:43:59.166Z,0.50
2018-10-12T15:46:28.441Z,0.40
2018-10-12T15:48:57.506Z,0.53
2018-10-12T15:51:26.497Z,0.40
2018-10-12T15:53:55.478Z,0.50
2018-10-12T15:56:24.433Z,0.50
2018-10-12T15:58:53.420Z,0.50
2018-10-12T16:01:22.492Z,0.50
2018-10-12T16:03:51.508Z,0.50
2018-10-12T16:06:20.705Z,0.50
2018-10-12T16:08:49.821Z,0.50
2018-10-12T16:11:18.824Z,0.60
2018-10-12T16:13:47.789Z,0.50
2018-10-12T16:16:16.787Z,0.57
2018-10-12T16:18:45.746Z,0.47
2018-10-12T16:21:14.769Z,0.47
2018-10-12T16:23:45.908Z,0.53
2018-10-12T16:26:18.796Z,0.67
2018-10-12T16:28:47.860Z,0.50
2018-10-12T16:31:17.174Z,0.50
2018-10-12T16:33:46.187Z,0.60
2018-10-12T16:36:15.457Z,0.50
2018-10-12T16:38:44.637Z,0.40
2018-10-12T16:41:13.626Z,0.40
2018-10-12T16:43:42.723Z,0.40
2018-10-12T16:46:11.778Z,0.50
2018-10-12T16:48:40.923Z,0.37
2018-10-12T16:51:09.818Z,0.57
2018-10-12T16:53:38.845Z,0.37
2018-10-12T16:56:07.874Z,0.50
2018-10-12T16:58:36.903Z,0.23
2018-10-12T17:01:05.879Z,0.40
2018-10-12T17:03:35.174Z,0.50
2018-10-12T17:06:04.224Z,0.40
2018-10-12T17:08:33.267Z,0.30
2018-10-12T17:11:02.362Z,0.40
2018-10-12T17:13:32.499Z,0.40
2018-10-12T17:16:01.598Z,0.30
2018-10-12T17:18:30.584Z,0.60
2018-10-12T17:20:59.539Z,0.23
2018-10-12T17:23:28.544Z,0.30
2018-10-12T17:25:57.557Z,0.40
2018-10-12T17:28:26.510Z,0.30
2018-10-12T17:30:55.537Z,0.30
2018-10-12T17:33:24.537Z,0.30
2018-10-12T17:35:53.502Z,0.30
2018-10-12T17:38:22.535Z,0.40
2018-10-12T17:40:51.521Z,0.20
2018-10-12T17:43:20.516Z,0.43
2018-10-12T17:45:49.489Z,0.40
2018-10-12T17:48:18.470Z,0.30
2018-10-12T17:50:47.595Z,0.30
2018-10-12T17:53:16.579Z,0.47
2018-10-12T17:55:45.566Z,0.40
2018-10-12T17:58:14.631Z,0.33
2018-10-12T18:00:43.749Z,0.33
2018-10-12T18:03:12.810Z,0.40
2018-10-12T18:05:41.744Z,0.30
2018-10-12T18:08:10.785Z,0.30
2018-10-12T18:10:39.835Z,0.30
2018-10-12T18:13:08.843Z,0.40
2018-10-12T18:15:37.834Z,0.20
2018-10-12T18:18:06.839Z,0.30
2018-10-12T18:20:35.838Z,0.20
2018-10-12T18:23:04.804Z,0.40
2018-10-12T18:25:33.791Z,0.30
2018-10-12T18:28:02.832Z,0.30
2018-10-12T18:30:31.783Z,0.40
2018-10-12T18:33:00.821Z,0.40
2018-10-12T18:35:29.779Z,0.20
2018-10-12T18:37:58.760Z,0.40
2018-10-12T18:40:27.991Z,0.27
2018-10-12T18:42:57.097Z,0.40
2018-10-12T18:45:26.177Z,0.23
2018-10-12T18:47:55.324Z,0.23
2018-10-12T18:50:24.299Z,0.20
2018-10-12T18:52:53.237Z,0.30
2018-10-12T18:55:22.277Z,0.30
2018-10-12T18:57:51.251Z,0.20
2018-10-12T19:00:20.290Z,0.30
2018-10-12T19:02:49.319Z,0.30
2018-10-12T19:05:18.336Z,0.30
2018-10-12T19:07:47.330Z,0.30
2018-10-12T19:10:16.420Z,0.30
2018-10-12T19:12:45.421Z,0.30
2018-10-12T19:15:14.422Z,0.20
2018-10-12T19:17:43.413Z,0.30
2018-10-12T19:20:12.426Z,0.20
2018-10-12T19:22:41.416Z,0.30
2018-10-12T19:25:10.410Z,0.30
2018-10-12T19:27:39.361Z,0.30
2018-10-12T19:30:08.373Z,0.30
2018-10-12T19:32:37.346Z,0.40
2018-10-12T19:35:06.643Z,0.37
2018-10-12T19:37:35.650Z,0.20
2018-10-12T19:40:04.649Z,0.37
2018-10-12T19:42:33.642Z,0.20
2018-10-12T19:45:02.656Z,0.40
2018-10-12T19:47:31.662Z,0.30
2018-10-12T19:50:00.723Z,0.30
2018-10-12T19:52:30.059Z,0.33
2018-10-12T19:54:59.003Z,0.37
2018-10-12T19:57:28.045Z,0.20
2018-10-12T19:59:57.018Z,0.20
2018-10-12T20:02:26.015Z,0.30
2018-10-12T20:04:55.046Z,0.30
2018-10-12T20:07:23.967Z,0.30
2018-10-12T20:09:53.015Z,0.20
2018-10-12T20:12:22.010Z,0.30
2018-10-12T20:14:50.974Z,0.20
2018-10-12T20:17:20.281Z,0.47
2018-10-12T20:19:49.492Z,0.40
2018-10-12T20:22:18.506Z,0.30
2018-10-12T20:24:47.466Z,0.23
2018-10-12T20:27:16.492Z,0.30
2018-10-12T20:29:45.546Z,0.20
2018-10-12T20:32:14.582Z,0.30
2018-10-12T20:34:43.540Z,0.30
2018-10-12T20:37:12.577Z,0.20
2018-10-12T20:39:41.503Z,0.23
2018-10-12T20:42:10.511Z,0.40
2018-10-12T20:44:39.514Z,0.30
2018-10-12T20:47:08.613Z,0.20
2018-10-12T20:49:38.622Z,0.20
2018-10-12T20:52:07.760Z,0.30
2018-10-12T20:54:36.730Z,0.40
2018-10-12T20:57:06.149Z,0.37
2018-10-12T20:59:35.060Z,0.40
2018-10-12T21:02:04.008Z,0.37
2018-10-12T21:04:33.034Z,0.30
2018-10-12T21:07:02.023Z,0.40
2018-10-12T21:09:31.130Z,0.30
2018-10-12T21:11:59.980Z,0.37
2018-10-12T21:14:29.204Z,0.40
2018-10-12T21:16:58.304Z,0.30
2018-10-12T21:19:27.325Z,0.30
2018-10-12T21:21:56.367Z,0.30
2018-10-12T21:24:25.388Z,0.30
2018-10-12T21:26:54.305Z,0.23
2018-10-12T21:29:23.403Z,0.30
2018-10-12T21:31:52.340Z,0.27
2018-10-12T21:35:25.031Z,0.30
2018-10-12T21:37:54.042Z,0.20
2018-10-12T21:40:23.138Z,0.30
2018-10-12T21:42:52.060Z,0.20
2018-10-12T21:45:21.045Z,0.37
2018-10-12T21:47:50.002Z,0.40
2018-10-12T21:50:19.121Z,0.30
2018-10-12T21:52:48.114Z,0.20
2018-10-12T21:55:17.046Z,0.30
2018-10-12T21:57:46.112Z,0.30
2018-10-12T22:00:15.056Z,0.30
2018-10-12T22:02:44.096Z,0.30
2018-10-12T22:05:13.118Z,0.30
2018-10-12T22:07:42.184Z,0.40
2018-10-12T22:10:11.173Z,0.33
2018-10-12T22:12:40.153Z,0.30
2018-10-12T22:15:09.351Z,0.30
2018-10-12T22:17:38.365Z,0.20
2018-10-12T22:20:07.333Z,0.37
2018-10-12T22:22:36.343Z,0.30
2018-10-12T22:25:05.336Z,0.30
2018-10-12T22:27:34.353Z,0.40
2018-10-12T22:30:03.366Z,0.30
2018-10-12T22:32:32.298Z,0.50
2018-10-12T22:35:01.325Z,0.30
2018-10-12T22:37:30.282Z,0.33
2018-10-12T22:39:59.277Z,0.40
2018-10-12T22:42:28.280Z,0.30
2018-10-12T22:44:57.259Z,0.20
2018-10-12T22:47:26.275Z,0.23
2018-10-12T22:49:55.269Z,0.30
2018-10-12T22:52:24.258Z,0.30
2018-10-12T22:54:53.259Z,0.30
2018-10-12T22:57:22.304Z,0.50
2018-10-12T22:59:51.288Z,0.20
2018-10-12T23:02:20.252Z,0.30
2018-10-12T23:04:49.274Z,0.30
2018-10-12T23:07:18.229Z,0.30
2018-10-12T23:09:47.305Z,0.47
2018-10-12T23:12:16.309Z,0.40
2018-10-12T23:14:45.323Z,0.27
2018-10-12T23:17:14.434Z,0.40
2018-10-12T23:19:43.407Z,0.40
2018-10-12T23:22:12.388Z,0.30
2018-10-12T23:24:41.402Z,0.30
2018-10-12T23:27:10.380Z,0.30
2018-10-12T23:29:39.414Z,0.30
2018-10-12T23:32:08.378Z,0.30
2018-10-12T23:34:37.371Z,0.37
2018-10-12T23:37:06.619Z,0.30
2018-10-12T23:39:35.693Z,0.20
2018-10-12T23:42:04.642Z,0.30
2018-10-12T23:44:33.685Z,0.30
2018-10-12T23:47:02.638Z,0.30
2018-10-12T23:49:31.690Z,0.33
2018-10-12T23:52:00.743Z,0.30
2018-10-12T23:54:29.776Z,0.40
2018-10-12T23:56:58.739Z,0.30
2018-10-12T23:59:27.728Z,0.30
